Dalton, Georgia
Current Conditions -  °F | °C
As of 2:55 PM on Thursday 30 Oct 2014 (Local Time) from KDNN Reporting Station
Clear Clear  
Wind Chill: 63°   Ceiling: Unl
Heat Index: 63°   Visibility: 10mi
Dew Point: 39°   Wind: 6mph
Humidity: 42%   Direction: 330°NNW
Pressure: 30.02"   Gusts: NA
Location:  34.76°N, 84.97°W
Report Text: KDNN 301855Z AUTO 33005KT 10SM CLR 17/04 A3002 RMK AO2
Loading
Personal Weather Stations






























Interactive Weather Map New forecast layout! Learn more

10-Day Weather Forecast

Advertisements
Track Severe Weather on mobile